createdAt,value
2023-03-05T00:00:16.817Z,67.22
2023-03-05T00:03:38.406Z,66.81
2023-03-05T00:07:01.967Z,66.89
2023-03-05T00:10:23.590Z,67.10
2023-03-05T00:13:45.375Z,67.79
2023-03-05T00:17:07.225Z,67.85
2023-03-05T00:20:29.034Z,68.20
2023-03-05T00:23:52.739Z,68.43
2023-03-05T00:27:15.107Z,68.63
2023-03-05T00:30:37.115Z,68.84
2023-03-05T00:34:01.097Z,67.96
2023-03-05T00:37:22.819Z,67.75
2023-03-05T00:40:46.250Z,68.14
2023-03-05T00:44:08.312Z,68.29
2023-03-05T00:47:29.976Z,69.31
2023-03-05T00:50:52.180Z,69.23
2023-03-05T00:54:14.076Z,70.22
2023-03-05T00:57:37.197Z,70.58
2023-03-05T01:01:00.230Z,71.44
2023-03-05T01:04:22.340Z,71.93
2023-03-05T01:07:44.243Z,72.34
2023-03-05T01:11:07.069Z,73.01
2023-03-05T01:14:30.420Z,74.00
2023-03-05T01:17:52.255Z,74.04
2023-03-05T01:21:13.994Z,74.50
2023-03-05T01:24:35.928Z,74.85
2023-03-05T01:27:58.105Z,75.06
2023-03-05T01:31:21.000Z,75.42
2023-03-05T01:34:42.955Z,75.42
2023-03-05T01:38:04.560Z,75.83
2023-03-05T01:41:26.876Z,76.12
2023-03-05T01:45:02.716Z,76.09
2023-03-05T01:48:25.622Z,76.52
2023-03-05T01:51:56.541Z,76.28
2023-03-05T01:55:23.562Z,76.36
2023-03-05T01:58:46.241Z,76.56
2023-03-05T02:02:08.155Z,76.80
2023-03-05T02:05:33.913Z,77.07
2023-03-05T02:08:55.621Z,77.32
2023-03-05T02:12:18.073Z,77.24
2023-03-05T02:15:40.582Z,77.31
2023-03-05T02:19:02.992Z,76.57
2023-03-05T02:22:26.229Z,76.22
2023-03-05T02:25:48.398Z,75.99
2023-03-05T02:29:11.511Z,75.82
2023-03-05T02:32:33.232Z,74.74
2023-03-05T02:35:55.014Z,73.87
2023-03-05T02:39:18.728Z,73.18
2023-03-05T02:42:40.830Z,71.88
2023-03-05T02:46:03.095Z,69.71
2023-03-05T02:49:24.687Z,68.73
2023-03-05T02:52:46.437Z,69.14
2023-03-05T02:56:11.576Z,66.75
2023-03-05T02:59:33.184Z,67.39
2023-03-05T03:02:55.082Z,67.02
2023-03-05T03:06:16.785Z,66.75
2023-03-05T03:09:38.991Z,66.58
2023-03-05T03:13:01.728Z,65.96
2023-03-05T03:16:23.281Z,65.60
2023-03-05T03:19:45.400Z,65.23
2023-03-05T03:23:07.322Z,65.05
2023-03-05T03:26:30.481Z,64.60
2023-03-05T03:29:53.876Z,64.08
2023-03-05T03:33:17.961Z,63.87
2023-03-05T03:36:39.924Z,63.76
2023-03-05T03:40:01.978Z,63.43
2023-03-05T03:43:24.003Z,63.97
2023-03-05T03:46:48.650Z,63.26
2023-03-05T03:50:11.827Z,63.41
2023-03-05T03:53:33.841Z,63.63
2023-03-05T03:56:55.209Z,63.86
2023-03-05T04:00:18.151Z,63.53
2023-03-05T04:03:41.115Z,63.57
2023-03-05T04:07:02.757Z,63.93
2023-03-05T04:10:24.526Z,63.62
2023-03-05T04:13:45.888Z,63.11
2023-03-05T04:17:07.403Z,63.42
2023-03-05T04:20:30.457Z,63.62
2023-03-05T04:23:52.095Z,63.54
2023-03-05T04:27:14.197Z,63.69
2023-03-05T04:30:35.688Z,63.89
2023-03-05T04:33:57.117Z,63.75
2023-03-05T04:37:19.852Z,63.48
2023-03-05T04:40:41.774Z,63.91
2023-03-05T04:44:03.222Z,64.17
2023-03-05T04:47:25.218Z,63.43
2023-03-05T04:50:46.887Z,64.00
2023-03-05T04:54:09.716Z,64.28
2023-03-05T04:57:31.199Z,64.50
2023-03-05T05:00:53.006Z,65.28
2023-03-05T05:04:14.925Z,65.19
2023-03-05T05:07:36.883Z,65.35
2023-03-05T05:11:01.959Z,65.71
2023-03-05T05:14:24.011Z,65.27
2023-03-05T05:17:45.985Z,65.54
2023-03-05T05:21:12.821Z,65.10
2023-03-05T05:24:34.431Z,65.39
2023-03-05T05:27:57.642Z,65.93
2023-03-05T05:31:21.107Z,66.15
2023-03-05T05:34:42.857Z,65.87
2023-03-05T05:38:04.648Z,66.11
2023-03-05T05:41:26.752Z,66.43
2023-03-05T05:44:50.277Z,66.57
2023-03-05T05:48:11.784Z,66.75
2023-03-05T05:51:34.259Z,66.64
2023-03-05T05:54:56.003Z,67.13
2023-03-05T05:58:17.944Z,67.02
2023-03-05T06:01:41.107Z,67.21
2023-03-05T06:05:02.647Z,66.99
2023-03-05T06:08:24.369Z,67.39
2023-03-05T06:11:46.224Z,67.43
2023-03-05T06:15:09.096Z,67.52
2023-03-05T06:18:32.069Z,67.74
2023-03-05T06:21:54.915Z,67.59
2023-03-05T06:25:16.886Z,67.47
2023-03-05T06:28:38.765Z,67.50
2023-03-05T06:32:00.416Z,67.65
2023-03-05T06:35:23.445Z,67.81
2023-03-05T06:38:45.994Z,67.79
2023-03-05T06:42:08.589Z,68.43
2023-03-05T06:45:30.412Z,68.35
2023-03-05T06:48:52.520Z,68.37
2023-03-05T06:52:15.892Z,68.34
2023-03-05T06:55:39.942Z,68.79
2023-03-05T06:59:01.663Z,69.20
2023-03-05T07:02:23.623Z,69.14
2023-03-05T07:05:45.530Z,69.56
2023-03-05T07:09:11.570Z,69.49
2023-03-05T07:12:34.020Z,69.68
2023-03-05T07:15:55.494Z,69.70
2023-03-05T07:19:17.420Z,70.07
2023-03-05T07:22:39.452Z,69.09
2023-03-05T07:26:04.344Z,69.76
2023-03-05T07:29:26.716Z,68.85
2023-03-05T07:32:48.657Z,68.98
2023-03-05T07:36:11.645Z,68.80
2023-03-05T07:39:33.057Z,68.63
2023-03-05T07:42:56.223Z,68.44
2023-03-05T07:46:28.483Z,68.30
2023-03-05T07:49:50.850Z,68.15
2023-03-05T07:53:13.071Z,68.15
2023-03-05T07:56:36.772Z,67.04
2023-03-05T08:00:00.163Z,66.56
2023-03-05T08:03:21.798Z,65.70
2023-03-05T08:06:43.855Z,66.82
2023-03-05T08:10:06.849Z,65.91
2023-03-05T08:13:28.721Z,65.62
2023-03-05T08:16:52.509Z,65.26
2023-03-05T08:20:14.857Z,65.01
2023-03-05T08:23:36.595Z,65.47
2023-03-05T08:26:59.381Z,65.47
2023-03-05T08:30:27.131Z,65.46
2023-03-05T08:33:50.266Z,65.59
2023-03-05T08:37:11.759Z,64.60
2023-03-05T08:40:34.590Z,64.87
2023-03-05T08:43:56.504Z,64.77
2023-03-05T08:47:19.146Z,64.47
2023-03-05T08:50:42.473Z,64.87
2023-03-05T08:54:06.969Z,64.81
2023-03-05T08:57:28.672Z,64.50
2023-03-05T09:00:50.910Z,64.67
2023-03-05T09:04:12.725Z,64.52
2023-03-05T09:07:37.873Z,65.23
2023-03-05T09:10:59.802Z,64.70
2023-03-05T09:14:21.448Z,64.13
2023-03-05T09:17:45.732Z,64.13
2023-03-05T09:21:09.512Z,64.03
2023-03-05T09:24:32.705Z,63.82
2023-03-05T09:27:54.408Z,64.61
2023-03-05T09:31:16.256Z,63.73
2023-03-05T09:34:38.179Z,63.54
2023-03-05T09:37:59.871Z,63.78
2023-03-05T09:41:37.061Z,63.96
2023-03-05T09:45:13.986Z,63.05
2023-03-05T09:48:50.534Z,61.75
2023-03-05T09:52:19.355Z,62.41
2023-03-05T09:55:43.900Z,61.14
2023-03-05T09:59:20.854Z,61.37
2023-03-05T10:02:48.987Z,61.75
2023-03-05T10:06:18.034Z,62.11
2023-03-05T10:09:46.616Z,62.29
2023-03-05T10:13:17.789Z,61.45
2023-03-05T10:16:59.551Z,61.11
2023-03-05T10:20:37.904Z,61.58
2023-03-05T10:24:04.471Z,60.32
2023-03-05T10:27:38.068Z,59.13
2023-03-05T10:31:10.022Z,58.58
2023-03-05T10:34:48.684Z,58.34
2023-03-05T10:38:25.625Z,58.39
2023-03-05T10:41:55.487Z,57.62
2023-03-05T10:45:21.180Z,57.86
2023-03-05T10:48:48.868Z,55.43
2023-03-05T10:52:18.577Z,54.67
2023-03-05T10:55:40.735Z,54.96
2023-03-05T10:59:02.182Z,55.13
2023-03-05T11:02:24.664Z,55.89
2023-03-05T11:05:48.099Z,56.26
2023-03-05T11:09:32.277Z,56.78
2023-03-05T11:12:56.585Z,57.34
2023-03-05T11:16:21.133Z,57.20
2023-03-05T11:19:43.155Z,57.08
2023-03-05T11:23:07.687Z,57.65
2023-03-05T11:26:31.715Z,57.43
2023-03-05T11:29:53.473Z,57.69
2023-03-05T11:33:19.304Z,57.52
2023-03-05T11:36:43.193Z,57.57
2023-03-05T11:40:21.075Z,57.74
2023-03-05T11:43:45.140Z,57.12
2023-03-05T11:47:19.151Z,57.55
2023-03-05T11:50:44.892Z,55.81
2023-03-05T11:54:13.535Z,55.65
2023-03-05T11:57:43.800Z,55.60
2023-03-05T12:01:12.821Z,55.05
2023-03-05T12:04:36.557Z,54.71
2023-03-05T12:08:00.430Z,55.42
2023-03-05T12:11:26.303Z,55.63
2023-03-05T12:14:54.493Z,54.89
2023-03-05T12:18:26.755Z,55.60
2023-03-05T12:21:51.460Z,54.32
2023-03-05T12:25:26.856Z,53.86
2023-03-05T12:28:59.155Z,54.14
2023-03-05T12:33:03.321Z,53.88
2023-03-05T12:36:40.250Z,53.31
2023-03-05T12:40:07.168Z,53.49
2023-03-05T12:43:31.096Z,53.05
2023-03-05T12:47:19.339Z,52.62
2023-03-05T12:50:52.767Z,52.97
2023-03-05T12:54:32.323Z,52.00
2023-03-05T12:57:59.469Z,52.52
2023-03-05T13:01:35.332Z,51.48
2023-03-05T13:05:02.045Z,51.44
2023-03-05T13:08:25.367Z,50.94
2023-03-05T13:11:52.278Z,50.96
2023-03-05T13:15:16.619Z,51.78
2023-03-05T13:18:41.830Z,51.76
2023-03-05T13:22:10.921Z,51.40
2023-03-05T13:25:32.708Z,51.02
2023-03-05T13:29:14.293Z,50.42
2023-03-05T13:32:36.264Z,51.14
2023-03-05T13:35:58.098Z,50.81
2023-03-05T13:39:23.272Z,50.25
2023-03-05T13:42:44.827Z,50.33
2023-03-05T13:46:07.728Z,50.15
2023-03-05T13:49:29.386Z,50.05
2023-03-05T13:52:51.142Z,49.45
2023-03-05T13:56:21.078Z,49.31
2023-03-05T13:59:54.306Z,49.81
2023-03-05T14:03:24.844Z,50.32
2023-03-05T14:06:50.397Z,49.41
2023-03-05T14:10:30.348Z,48.86
2023-03-05T14:14:03.830Z,49.75
2023-03-05T14:17:39.154Z,49.13
2023-03-05T14:21:05.563Z,49.26
2023-03-05T14:24:31.219Z,49.22
2023-03-05T14:27:52.995Z,47.82
2023-03-05T14:31:18.162Z,47.46
2023-03-05T14:34:43.104Z,49.09
2023-03-05T14:38:08.391Z,48.61
2023-03-05T14:41:37.195Z,49.25
2023-03-05T14:45:01.521Z,49.52
2023-03-05T14:48:22.685Z,49.54
2023-03-05T14:51:46.600Z,49.60
2023-03-05T14:55:15.785Z,49.26
2023-03-05T14:58:37.853Z,49.01
2023-03-05T15:01:59.551Z,49.44
2023-03-05T15:05:21.847Z,48.94
2023-03-05T15:08:44.432Z,49.15
2023-03-05T15:12:07.920Z,49.40
2023-03-05T15:15:29.441Z,49.80
2023-03-05T15:18:51.319Z,50.12
2023-03-05T15:22:13.925Z,49.73
2023-03-05T15:25:35.826Z,50.59
2023-03-05T15:28:59.121Z,49.86
2023-03-05T15:32:20.910Z,49.17
2023-03-05T15:35:43.214Z,50.09
2023-03-05T15:39:05.060Z,49.74
2023-03-05T15:42:26.618Z,50.24
2023-03-05T15:45:50.022Z,50.29
2023-03-05T15:49:11.709Z,49.49
2023-03-05T15:52:33.736Z,50.08
2023-03-05T15:55:55.453Z,50.03
2023-03-05T15:59:17.390Z,50.23
2023-03-05T16:02:40.792Z,49.71
2023-03-05T16:06:05.019Z,49.98
2023-03-05T16:09:31.036Z,50.12
2023-03-05T16:12:57.672Z,49.83
2023-03-05T16:16:20.152Z,49.56
2023-03-05T16:19:44.815Z,47.48
2023-03-05T16:23:06.848Z,47.77
2023-03-05T16:26:28.812Z,47.60
2023-03-05T16:29:51.157Z,48.49
2023-03-05T16:33:12.968Z,47.68
2023-03-05T16:36:36.723Z,47.17
2023-03-05T16:40:00.161Z,47.80
2023-03-05T16:43:22.046Z,47.09
2023-03-05T16:46:49.114Z,46.72
2023-03-05T16:50:12.402Z,46.66
2023-03-05T16:53:36.022Z,46.14
2023-03-05T16:57:00.885Z,46.42
2023-03-05T17:00:24.779Z,46.62
2023-03-05T17:03:47.972Z,46.76
2023-03-05T17:07:09.619Z,46.94
2023-03-05T17:10:32.974Z,47.57
2023-03-05T17:13:54.909Z,47.03
2023-03-05T17:17:16.796Z,47.83
2023-03-05T17:20:38.604Z,48.25
2023-03-05T17:24:00.542Z,48.64
2023-03-05T17:27:23.905Z,48.44
2023-03-05T17:30:45.708Z,48.13
2023-03-05T17:34:07.665Z,48.31
2023-03-05T17:37:30.099Z,48.82
2023-03-05T17:40:52.005Z,48.74
2023-03-05T17:44:15.120Z,48.96
2023-03-05T17:47:37.234Z,49.11
2023-03-05T17:50:59.594Z,49.74
2023-03-05T17:54:21.907Z,49.48
2023-03-05T17:57:44.619Z,50.14
2023-03-05T18:01:08.524Z,49.90
2023-03-05T18:04:30.564Z,49.51
2023-03-05T18:07:53.500Z,49.96
2023-03-05T18:11:15.439Z,50.74
2023-03-05T18:14:37.028Z,50.27
2023-03-05T18:18:00.301Z,50.46
2023-03-05T18:21:24.017Z,51.13
2023-03-05T18:24:45.987Z,51.04
2023-03-05T18:28:09.706Z,51.77
2023-03-05T18:31:30.947Z,51.44
2023-03-05T18:34:54.085Z,51.65
2023-03-05T18:38:15.870Z,51.60
2023-03-05T18:41:37.753Z,51.26
2023-03-05T18:45:00.776Z,51.58
2023-03-05T18:48:23.490Z,51.03
2023-03-05T18:51:47.469Z,51.60
2023-03-05T18:55:13.608Z,51.07
2023-03-05T18:58:35.188Z,51.54
2023-03-05T19:01:57.140Z,51.00
2023-03-05T19:05:20.523Z,50.61
2023-03-05T19:08:43.731Z,50.51
2023-03-05T19:12:06.349Z,50.21
2023-03-05T19:15:28.341Z,50.01
2023-03-05T19:18:59.780Z,50.30
2023-03-05T19:22:21.766Z,49.99
2023-03-05T19:25:44.903Z,50.42
2023-03-05T19:29:06.885Z,50.38
2023-03-05T19:32:28.950Z,50.69
2023-03-05T19:35:50.927Z,50.33
2023-03-05T19:39:12.605Z,50.89
2023-03-05T19:42:38.057Z,51.03
2023-03-05T19:46:01.999Z,51.57
2023-03-05T19:49:24.896Z,51.85
2023-03-05T19:52:46.722Z,51.86
2023-03-05T19:56:09.663Z,51.85
2023-03-05T19:59:32.679Z,52.25
2023-03-05T20:02:54.557Z,52.17
2023-03-05T20:06:16.712Z,52.35
2023-03-05T20:09:38.611Z,53.21
2023-03-05T20:13:00.292Z,52.94
2023-03-05T20:16:26.163Z,53.68
2023-03-05T20:19:48.093Z,53.38
2023-03-05T20:23:10.156Z,54.16
2023-03-05T20:26:32.140Z,54.27
2023-03-05T20:29:54.118Z,54.58
2023-03-05T20:33:17.628Z,54.94
2023-03-05T20:36:40.138Z,55.39
2023-03-05T20:40:02.332Z,55.97
2023-03-05T20:43:25.216Z,56.10
2023-03-05T20:46:53.029Z,56.30
2023-03-05T20:50:17.156Z,56.49
2023-03-05T20:53:39.070Z,56.58
2023-03-05T20:57:01.005Z,57.26
2023-03-05T21:00:23.633Z,57.48
2023-03-05T21:03:45.520Z,57.57
2023-03-05T21:07:09.689Z,58.30
2023-03-05T21:10:31.752Z,57.78
2023-03-05T21:13:53.578Z,58.27
2023-03-05T21:17:15.627Z,58.85
2023-03-05T21:20:37.284Z,58.95
2023-03-05T21:24:00.648Z,58.78
2023-03-05T21:27:22.539Z,59.00
2023-03-05T21:30:46.348Z,59.23
2023-03-05T21:34:07.931Z,58.99
2023-03-05T21:37:29.915Z,59.60
2023-03-05T21:40:54.070Z,59.50
2023-03-05T21:44:17.736Z,59.64
2023-03-05T21:47:39.261Z,59.52
2023-03-05T21:51:01.157Z,59.56
2023-03-05T21:54:24.797Z,59.73
2023-03-05T21:57:47.932Z,59.97
2023-03-05T22:01:12.032Z,60.08
2023-03-05T22:04:33.759Z,60.06
2023-03-05T22:07:56.715Z,60.23
2023-03-05T22:11:20.960Z,60.06
2023-03-05T22:14:44.211Z,60.61
2023-03-05T22:18:06.193Z,60.52
2023-03-05T22:21:29.147Z,60.93
2023-03-05T22:24:50.896Z,60.85
2023-03-05T22:28:13.793Z,61.03
2023-03-05T22:31:36.992Z,61.22
2023-03-05T22:34:58.682Z,61.41
2023-03-05T22:38:21.472Z,62.02
2023-03-05T22:41:43.638Z,62.23
2023-03-05T22:45:06.504Z,63.28
2023-03-05T22:48:29.469Z,63.01
2023-03-05T22:51:51.404Z,63.96
2023-03-05T22:55:15.458Z,64.02
2023-03-05T22:58:37.749Z,64.72
2023-03-05T23:01:59.464Z,65.10
2023-03-05T23:05:22.271Z,65.79
2023-03-05T23:08:43.911Z,66.04
2023-03-05T23:12:06.612Z,66.82
2023-03-05T23:15:30.973Z,67.54
2023-03-05T23:18:54.410Z,68.38
2023-03-05T23:22:17.525Z,68.75
2023-03-05T23:25:39.298Z,69.35
2023-03-05T23:29:01.265Z,70.07
2023-03-05T23:32:23.361Z,70.66
2023-03-05T23:35:51.724Z,71.21
2023-03-05T23:39:15.137Z,71.85
2023-03-05T23:42:38.313Z,72.47
2023-03-05T23:46:01.788Z,72.69
2023-03-05T23:49:23.776Z,73.21
2023-03-05T23:52:46.692Z,73.42
2023-03-05T23:56:13.294Z,74.07
2023-03-05T23:59:36.083Z,74.46
